createdAt,value
2022-09-24T00:02:24.475Z,11.00
2022-09-24T00:04:57.320Z,11.00
2022-09-24T00:07:30.033Z,11.00
2022-09-24T00:10:03.134Z,11.00
2022-09-24T00:12:35.824Z,11.00
2022-09-24T00:15:09.163Z,10.90
2022-09-24T00:17:41.932Z,10.90
2022-09-24T00:20:15.207Z,10.90
2022-09-24T00:22:51.037Z,10.90
2022-09-24T00:25:42.477Z,10.90
2022-09-24T00:28:16.115Z,10.90
2022-09-24T00:30:48.871Z,10.90
2022-09-24T00:33:21.700Z,11.00
2022-09-24T00:36:55.493Z,10.90
2022-09-24T00:39:28.312Z,10.90
2022-09-24T00:42:01.113Z,10.90
2022-09-24T00:44:45.712Z,10.90
2022-09-24T00:47:27.531Z,10.90
2022-09-24T00:50:06.311Z,10.90
2022-09-24T00:52:47.149Z,10.80
2022-09-24T00:55:22.083Z,10.80
2022-09-24T00:57:58.788Z,10.80
2022-09-24T01:00:32.069Z,10.80
2022-09-24T01:03:21.093Z,10.80
2022-09-24T01:05:55.192Z,10.80
2022-09-24T01:08:27.980Z,10.80
2022-09-24T01:11:19.138Z,10.90
2022-09-24T01:14:21.178Z,10.90
2022-09-24T01:17:17.142Z,10.90
2022-09-24T01:20:36.330Z,11.00
2022-09-24T01:23:30.514Z,10.90
2022-09-24T01:26:22.488Z,10.90
2022-09-24T01:29:22.127Z,10.90
2022-09-24T01:32:15.947Z,10.90
2022-09-24T01:34:59.587Z,10.90
2022-09-24T01:37:34.468Z,10.90
2022-09-24T01:40:10.586Z,10.90
2022-09-24T01:42:44.982Z,10.80
2022-09-24T01:45:18.805Z,10.80
2022-09-24T01:47:51.674Z,10.80
2022-09-24T01:50:26.485Z,10.80
2022-09-24T01:53:08.434Z,10.80
2022-09-24T01:55:48.071Z,10.80
2022-09-24T01:58:44.994Z,10.80
2022-09-24T02:01:26.415Z,10.80
2022-09-24T02:04:11.932Z,10.90
2022-09-24T02:07:06.221Z,10.90
2022-09-24T02:09:43.811Z,10.90
2022-09-24T02:12:28.068Z,10.90
2022-09-24T02:15:11.662Z,11.00
2022-09-24T02:17:49.780Z,11.00
2022-09-24T02:20:24.480Z,11.00
2022-09-24T02:22:57.556Z,11.00
2022-09-24T02:25:41.706Z,11.00
2022-09-24T02:28:14.600Z,10.90
2022-09-24T02:30:53.662Z,10.90
2022-09-24T02:33:46.828Z,11.00
2022-09-24T02:36:19.844Z,10.90
2022-09-24T02:38:53.075Z,10.90
2022-09-24T02:41:27.424Z,10.90
2022-09-24T02:44:00.260Z,10.90
2022-09-24T02:46:33.129Z,10.90
2022-09-24T02:49:05.886Z,10.90
2022-09-24T02:51:39.215Z,10.90
2022-09-24T02:54:12.038Z,10.90
2022-09-24T02:56:44.786Z,10.90
2022-09-24T02:59:18.680Z,10.90
2022-09-24T03:01:51.576Z,10.80
2022-09-24T03:04:25.232Z,10.80
2022-09-24T03:06:58.091Z,10.90
2022-09-24T03:09:30.940Z,10.90
2022-09-24T03:12:05.014Z,10.80
2022-09-24T03:14:38.224Z,10.90
2022-09-24T03:17:10.861Z,10.80
2022-09-24T03:19:43.494Z,10.80
2022-09-24T03:22:16.347Z,10.90
2022-09-24T03:24:49.053Z,10.90
2022-09-24T03:27:22.007Z,10.90
2022-09-24T03:30:13.353Z,10.90
2022-09-24T03:32:48.020Z,10.90
2022-09-24T03:35:21.240Z,10.90
2022-09-24T03:37:54.132Z,11.00
2022-09-24T03:40:26.835Z,11.00
2022-09-24T03:42:59.695Z,11.00
2022-09-24T03:45:32.500Z,11.00
2022-09-24T03:48:06.467Z,11.00
2022-09-24T03:50:39.469Z,11.00
2022-09-24T03:53:13.128Z,11.00
2022-09-24T03:55:48.282Z,11.00
2022-09-24T03:58:21.203Z,11.00
2022-09-24T04:00:54.787Z,11.00
2022-09-24T04:03:27.694Z,11.00
2022-09-24T04:06:00.566Z,11.00
2022-09-24T04:08:33.526Z,11.00
2022-09-24T04:11:06.434Z,11.00
2022-09-24T04:13:39.149Z,11.00
2022-09-24T04:16:12.075Z,11.00
2022-09-24T04:18:47.866Z,11.10
2022-09-24T04:21:21.332Z,11.10
2022-09-24T04:23:54.053Z,11.10
2022-09-24T04:26:26.798Z,11.10
2022-09-24T04:28:59.666Z,11.10
2022-09-24T04:31:33.366Z,11.20
2022-09-24T04:34:06.291Z,11.20
2022-09-24T04:36:39.047Z,11.20
2022-09-24T04:39:11.876Z,11.20
2022-09-24T04:41:47.042Z,11.10
2022-09-24T04:44:20.291Z,11.10
2022-09-24T04:46:53.027Z,11.10
2022-09-24T04:49:25.875Z,11.10
2022-09-24T04:51:58.547Z,11.10
2022-09-24T04:54:32.169Z,11.10
2022-09-24T04:57:04.814Z,11.10
2022-09-24T04:59:37.568Z,11.10
2022-09-24T05:02:10.652Z,11.00
2022-09-24T05:04:46.204Z,11.00
2022-09-24T05:07:18.990Z,11.00
2022-09-24T05:09:51.819Z,11.00
2022-09-24T05:12:24.463Z,11.10
2022-09-24T05:14:57.209Z,11.10
2022-09-24T05:17:29.935Z,11.10
2022-09-24T05:20:02.787Z,11.20
2022-09-24T05:22:37.335Z,11.20
2022-09-24T05:25:11.426Z,11.20
2022-09-24T05:27:49.141Z,11.20
2022-09-24T05:30:24.217Z,11.20
2022-09-24T05:32:57.176Z,11.20
2022-09-24T05:35:29.895Z,11.20
2022-09-24T05:38:02.693Z,11.30
2022-09-24T05:40:50.485Z,11.30
2022-09-24T05:43:23.741Z,11.30
2022-09-24T05:45:58.551Z,11.30
2022-09-24T05:48:31.323Z,11.30
2022-09-24T05:51:05.324Z,11.30
2022-09-24T05:53:37.980Z,11.30
2022-09-24T05:56:10.800Z,11.30
2022-09-24T05:58:43.524Z,11.30
2022-09-24T06:01:16.716Z,11.40
2022-09-24T06:03:49.352Z,11.30
2022-09-24T06:06:22.625Z,11.30
2022-09-24T06:08:56.183Z,11.30
2022-09-24T06:11:39.799Z,11.40
2022-09-24T06:14:14.199Z,11.30
2022-09-24T06:16:46.891Z,11.40
2022-09-24T06:19:23.470Z,11.40
2022-09-24T06:21:57.409Z,11.40
2022-09-24T06:24:30.370Z,11.40
2022-09-24T06:27:03.085Z,11.40
2022-09-24T06:29:35.838Z,11.50
2022-09-24T06:32:09.177Z,11.50
2022-09-24T06:34:42.064Z,11.50
2022-09-24T06:37:14.776Z,11.50
2022-09-24T06:39:47.549Z,11.60
2022-09-24T06:42:20.779Z,11.60
2022-09-24T06:44:53.540Z,11.60
2022-09-24T06:47:26.535Z,11.70
2022-09-24T06:49:59.260Z,11.70
2022-09-24T06:52:32.283Z,11.70
2022-09-24T06:55:05.574Z,11.80
2022-09-24T06:57:38.261Z,11.80
2022-09-24T07:00:12.405Z,11.80
2022-09-24T07:02:51.450Z,11.80
2022-09-24T07:05:24.308Z,11.80
2022-09-24T07:07:57.003Z,11.90
2022-09-24T07:10:29.913Z,11.90
2022-09-24T07:13:03.123Z,11.90
2022-09-24T07:15:36.005Z,12.00
2022-09-24T07:18:09.232Z,12.00
2022-09-24T07:20:42.137Z,12.00
2022-09-24T07:23:14.842Z,12.00
2022-09-24T07:25:48.397Z,12.10
2022-09-24T07:28:21.068Z,12.10
2022-09-24T07:30:58.555Z,12.20
2022-09-24T07:33:31.874Z,12.20
2022-09-24T07:36:07.111Z,12.30
2022-09-24T07:38:39.971Z,12.40
2022-09-24T07:41:13.067Z,12.50
2022-09-24T07:43:45.791Z,12.50
2022-09-24T07:46:19.999Z,12.60
2022-09-24T07:48:55.968Z,12.50
2022-09-24T07:51:29.599Z,12.50
2022-09-24T07:54:02.405Z,12.50
2022-09-24T07:56:35.322Z,12.60
2022-09-24T07:59:11.028Z,12.80
2022-09-24T08:01:43.817Z,13.00
2022-09-24T08:04:18.153Z,13.20
2022-09-24T08:06:51.268Z,13.30
2022-09-24T08:09:24.134Z,13.30
2022-09-24T08:11:56.901Z,13.30
2022-09-24T08:14:29.668Z,13.40
2022-09-24T08:17:02.865Z,13.50
2022-09-24T08:19:35.551Z,13.60
2022-09-24T08:22:08.602Z,13.70
2022-09-24T08:24:41.903Z,13.70
2022-09-24T08:27:17.337Z,13.80
2022-09-24T08:29:50.624Z,13.90
2022-09-24T08:32:23.463Z,14.00
2022-09-24T08:34:59.665Z,14.20
2022-09-24T08:37:35.254Z,14.40
2022-09-24T08:40:19.003Z,14.60
2022-09-24T08:43:08.037Z,14.70
2022-09-24T08:46:07.867Z,14.90
2022-09-24T08:48:46.597Z,15.10
2022-09-24T08:51:22.025Z,15.30
2022-09-24T08:54:06.037Z,15.60
2022-09-24T08:56:43.975Z,15.60
2022-09-24T08:59:24.113Z,15.80
2022-09-24T09:02:37.194Z,15.80
2022-09-24T09:05:31.819Z,15.90
2022-09-24T09:08:50.587Z,15.90
2022-09-24T09:11:28.115Z,15.90
2022-09-24T09:14:09.696Z,15.90
2022-09-24T09:17:06.624Z,15.90
2022-09-24T09:19:41.668Z,15.80
2022-09-24T09:22:16.840Z,15.70
2022-09-24T09:24:55.993Z,15.70
2022-09-24T09:27:30.873Z,15.70
2022-09-24T09:30:10.531Z,15.70
2022-09-24T09:33:10.360Z,15.70
2022-09-24T09:35:55.397Z,15.60
2022-09-24T09:38:46.920Z,15.60
2022-09-24T09:41:34.738Z,15.60
2022-09-24T09:44:23.825Z,15.70
2022-09-24T09:47:15.248Z,15.70
2022-09-24T09:49:49.973Z,15.80
2022-09-24T09:52:28.435Z,15.80
2022-09-24T09:55:01.146Z,15.80
2022-09-24T09:57:38.562Z,15.90
2022-09-24T10:00:28.164Z,15.90
2022-09-24T10:03:01.156Z,16.00
2022-09-24T10:05:34.827Z,16.00
2022-09-24T10:08:23.875Z,16.00
2022-09-24T10:10:59.040Z,16.00
2022-09-24T10:13:32.485Z,16.00
2022-09-24T10:16:08.814Z,16.00
2022-09-24T10:18:51.079Z,16.00
2022-09-24T10:21:34.346Z,16.00
2022-09-24T10:24:16.392Z,16.00
2022-09-24T10:26:49.901Z,16.00
2022-09-24T10:29:45.363Z,16.00
2022-09-24T10:32:21.626Z,16.00
2022-09-24T10:35:14.949Z,15.90
2022-09-24T10:37:52.966Z,15.80
2022-09-24T10:40:31.509Z,15.80
2022-09-24T10:43:06.025Z,15.80
2022-09-24T10:46:07.767Z,15.80
2022-09-24T10:48:50.172Z,15.80
2022-09-24T10:51:31.478Z,15.70
2022-09-24T10:54:34.285Z,15.80
2022-09-24T10:57:33.143Z,15.70
2022-09-24T11:00:31.362Z,15.70
2022-09-24T11:03:30.236Z,15.60
2022-09-24T11:06:22.699Z,15.70
2022-09-24T11:09:28.581Z,15.60
2022-09-24T11:12:12.043Z,15.70
2022-09-24T11:14:46.518Z,15.80
2022-09-24T11:17:58.923Z,15.80
2022-09-24T11:20:38.007Z,16.00
2022-09-24T11:23:19.438Z,16.10
2022-09-24T11:26:26.993Z,16.10
2022-09-24T11:29:37.023Z,16.30
2022-09-24T11:32:27.719Z,16.40
2022-09-24T11:35:20.957Z,16.50
2022-09-24T11:38:02.228Z,16.50
2022-09-24T11:40:53.619Z,16.50
2022-09-24T11:44:00.786Z,16.60
2022-09-24T11:46:34.202Z,16.60
2022-09-24T11:49:15.821Z,16.60
2022-09-24T11:52:02.510Z,16.60
2022-09-24T11:54:47.619Z,16.50
2022-09-24T11:57:28.588Z,16.50
2022-09-24T12:00:13.668Z,16.50
2022-09-24T12:03:31.208Z,16.50
2022-09-24T12:06:12.878Z,16.50
2022-09-24T12:09:31.688Z,16.50
2022-09-24T12:12:07.789Z,16.50
2022-09-24T12:14:49.885Z,16.50
2022-09-24T12:17:31.309Z,16.60
2022-09-24T12:20:34.883Z,16.70
2022-09-24T12:23:15.058Z,16.70
2022-09-24T12:25:49.495Z,16.90
2022-09-24T12:28:41.786Z,17.10
2022-09-24T12:32:01.886Z,17.40
2022-09-24T12:35:00.404Z,17.60
2022-09-24T12:37:38.539Z,17.60
2022-09-24T12:40:54.204Z,17.60
2022-09-24T12:43:33.814Z,17.60
2022-09-24T12:46:15.182Z,17.50
2022-09-24T12:48:50.081Z,17.50
2022-09-24T12:51:23.977Z,17.40
2022-09-24T12:54:16.863Z,17.30
2022-09-24T12:56:49.779Z,17.20
2022-09-24T12:59:27.179Z,17.20
2022-09-24T13:02:20.987Z,17.10
2022-09-24T13:05:05.276Z,17.00
2022-09-24T13:07:40.830Z,16.90
2022-09-24T13:10:16.369Z,16.80
2022-09-24T13:12:50.501Z,16.70
2022-09-24T13:15:28.496Z,16.60
2022-09-24T13:18:11.098Z,16.60
2022-09-24T13:20:49.963Z,16.50
2022-09-24T13:23:23.067Z,16.50
2022-09-24T13:26:05.202Z,16.50
2022-09-24T13:28:55.182Z,16.40
2022-09-24T13:31:35.230Z,16.40
2022-09-24T13:34:11.037Z,16.40
2022-09-24T13:36:57.629Z,16.40
2022-09-24T13:39:47.375Z,16.40
2022-09-24T13:42:33.333Z,16.40
2022-09-24T13:45:11.546Z,16.40
2022-09-24T13:47:48.248Z,16.40
2022-09-24T13:50:46.374Z,16.50
2022-09-24T13:53:29.634Z,16.60
2022-09-24T13:56:18.036Z,16.60
2022-09-24T13:58:51.596Z,16.60
2022-09-24T14:01:29.912Z,16.60
2022-09-24T14:04:08.369Z,16.70
2022-09-24T14:06:44.787Z,16.70
2022-09-24T14:09:36.071Z,16.70
2022-09-24T14:12:18.818Z,16.70
2022-09-24T14:14:54.853Z,16.60
2022-09-24T14:17:27.561Z,16.60
2022-09-24T14:20:00.416Z,16.60
2022-09-24T14:22:41.331Z,16.60
2022-09-24T14:25:27.329Z,16.60
2022-09-24T14:28:03.206Z,16.60
2022-09-24T14:30:39.123Z,16.60
2022-09-24T14:33:17.708Z,16.60
2022-09-24T14:35:52.971Z,16.70
2022-09-24T14:38:35.187Z,16.70
2022-09-24T14:41:18.866Z,16.70
2022-09-24T14:43:54.560Z,16.70
2022-09-24T14:46:34.291Z,16.80
2022-09-24T14:49:27.506Z,16.80
2022-09-24T14:52:02.434Z,16.80
2022-09-24T14:54:40.209Z,16.80
2022-09-24T14:57:19.011Z,16.80
2022-09-24T14:59:52.503Z,16.80
2022-09-24T15:02:29.800Z,16.80
2022-09-24T15:05:06.683Z,16.70
2022-09-24T15:07:39.909Z,16.70
2022-09-24T15:10:22.174Z,16.70
2022-09-24T15:12:54.872Z,16.70
2022-09-24T15:15:30.616Z,16.80
2022-09-24T15:18:03.847Z,16.80
2022-09-24T15:20:37.084Z,16.80
2022-09-24T15:23:09.881Z,16.80
2022-09-24T15:25:43.609Z,16.80
2022-09-24T15:28:16.700Z,16.80
2022-09-24T15:30:49.472Z,16.90
2022-09-24T15:33:22.398Z,16.90
2022-09-24T15:35:55.098Z,16.90
2022-09-24T15:38:27.811Z,16.90
2022-09-24T15:41:00.606Z,16.90
2022-09-24T15:43:33.394Z,16.90
2022-09-24T15:46:06.279Z,16.90
2022-09-24T15:48:39.123Z,16.90
2022-09-24T15:51:15.574Z,16.80
2022-09-24T15:53:50.322Z,16.80
2022-09-24T15:56:23.043Z,16.70
2022-09-24T15:58:56.070Z,16.70
2022-09-24T16:01:28.792Z,16.60
2022-09-24T16:04:01.962Z,16.50
2022-09-24T16:06:34.813Z,16.50
2022-09-24T16:09:07.575Z,16.40
2022-09-24T16:11:40.309Z,16.30
2022-09-24T16:14:14.172Z,16.30
2022-09-24T16:16:46.821Z,16.20
2022-09-24T16:19:19.871Z,16.20
2022-09-24T16:21:53.120Z,16.20
2022-09-24T16:24:26.092Z,16.10
2022-09-24T16:26:59.424Z,16.10
2022-09-24T16:29:32.163Z,16.00
2022-09-24T16:32:05.056Z,16.00
2022-09-24T16:34:37.798Z,15.90
2022-09-24T16:37:10.566Z,15.90
2022-09-24T16:39:43.814Z,15.90
2022-09-24T16:42:16.570Z,15.90
2022-09-24T16:44:49.265Z,15.80
2022-09-24T16:47:22.029Z,15.80
2022-09-24T16:49:54.711Z,15.80
2022-09-24T16:52:31.461Z,15.80
2022-09-24T16:55:04.700Z,15.70
2022-09-24T16:57:38.329Z,15.70
2022-09-24T17:00:11.781Z,15.60
2022-09-24T17:02:44.530Z,15.60
2022-09-24T17:05:17.455Z,15.60
2022-09-24T17:07:50.161Z,15.60
2022-09-24T17:10:24.074Z,15.60
2022-09-24T17:12:57.766Z,15.60
2022-09-24T17:15:30.450Z,15.50
2022-09-24T17:18:03.184Z,15.50
2022-09-24T17:20:35.966Z,15.50
2022-09-24T17:23:08.639Z,15.50
2022-09-24T17:25:41.304Z,15.50
2022-09-24T17:28:14.111Z,15.40
2022-09-24T17:30:46.836Z,15.50
2022-09-24T17:33:41.789Z,15.40
2022-09-24T17:36:14.116Z,15.40
2022-09-24T17:38:47.045Z,15.30
2022-09-24T17:41:19.987Z,15.30
2022-09-24T17:43:52.784Z,15.30
2022-09-24T17:46:27.667Z,15.30
2022-09-24T17:49:00.733Z,15.30
2022-09-24T17:51:36.246Z,15.20
2022-09-24T17:54:12.228Z,15.20
2022-09-24T17:56:45.355Z,15.20
2022-09-24T17:59:20.066Z,15.20
2022-09-24T18:01:55.835Z,15.20
2022-09-24T18:04:31.121Z,15.20
2022-09-24T18:07:03.833Z,15.20
2022-09-24T18:09:36.658Z,15.20
2022-09-24T18:12:13.476Z,15.10
2022-09-24T18:14:49.162Z,15.10
2022-09-24T18:17:21.887Z,15.10
2022-09-24T18:19:54.698Z,15.10
2022-09-24T18:22:27.731Z,15.10
2022-09-24T18:25:05.618Z,15.10
2022-09-24T18:27:38.535Z,15.00
2022-09-24T18:30:11.623Z,15.00
2022-09-24T18:32:47.432Z,15.00
2022-09-24T18:35:20.097Z,15.00
2022-09-24T18:37:52.894Z,15.00
2022-09-24T18:40:25.703Z,15.00
2022-09-24T18:42:58.579Z,14.90
2022-09-24T18:45:31.362Z,14.90
2022-09-24T18:48:04.264Z,14.90
2022-09-24T18:50:43.278Z,14.90
2022-09-24T18:53:16.019Z,14.80
2022-09-24T18:55:48.702Z,14.80
2022-09-24T18:58:21.555Z,14.80
2022-09-24T19:01:02.118Z,14.80
2022-09-24T19:03:36.439Z,14.80
2022-09-24T19:06:11.852Z,14.80
2022-09-24T19:08:44.980Z,14.80
2022-09-24T19:11:18.271Z,14.80
2022-09-24T19:13:53.315Z,14.80
2022-09-24T19:16:26.164Z,14.80
2022-09-24T19:19:00.623Z,14.80
2022-09-24T19:21:33.449Z,14.80
2022-09-24T19:24:06.989Z,14.70
2022-09-24T19:26:39.866Z,14.80
2022-09-24T19:29:13.007Z,14.70
2022-09-24T19:31:45.916Z,14.70
2022-09-24T19:34:20.834Z,14.70
2022-09-24T19:36:54.878Z,14.70
2022-09-24T19:39:27.625Z,14.60
2022-09-24T19:42:00.642Z,14.70
2022-09-24T19:44:33.400Z,14.70
2022-09-24T19:47:08.115Z,14.60
2022-09-24T19:49:40.865Z,14.60
2022-09-24T19:52:13.501Z,14.60
2022-09-24T19:54:49.444Z,14.60
2022-09-24T19:57:22.200Z,14.60
2022-09-24T19:59:54.976Z,14.60
2022-09-24T20:02:29.994Z,14.50
2022-09-24T20:05:02.962Z,14.60
2022-09-24T20:07:35.878Z,14.50
2022-09-24T20:10:09.638Z,14.50
2022-09-24T20:12:46.436Z,14.50
2022-09-24T20:15:19.228Z,14.50
2022-09-24T20:17:53.565Z,14.50
2022-09-24T20:20:26.455Z,14.50
2022-09-24T20:22:59.716Z,14.40
2022-09-24T20:25:51.008Z,14.50
2022-09-24T20:28:23.795Z,14.50
2022-09-24T20:30:56.593Z,14.40
2022-09-24T20:33:30.819Z,14.40
2022-09-24T20:36:04.540Z,14.40
2022-09-24T20:38:43.933Z,14.40
2022-09-24T20:41:22.087Z,14.40
2022-09-24T20:43:57.664Z,14.40
2022-09-24T20:46:30.437Z,14.40
2022-09-24T20:49:03.330Z,14.40
2022-09-24T20:51:37.130Z,14.40
2022-09-24T20:54:11.091Z,14.40
2022-09-24T20:56:44.126Z,14.40
2022-09-24T20:59:17.032Z,14.40
2022-09-24T21:01:49.930Z,14.40
2022-09-24T21:04:23.416Z,14.40
2022-09-24T21:06:56.223Z,14.40
2022-09-24T21:09:29.941Z,14.30
2022-09-24T21:12:03.515Z,14.30
2022-09-24T21:14:36.509Z,14.30
2022-09-24T21:17:10.056Z,14.30
2022-09-24T21:19:42.874Z,14.30
2022-09-24T21:22:15.667Z,14.20
2022-09-24T21:24:52.134Z,14.20
2022-09-24T21:27:24.887Z,14.20
2022-09-24T21:29:57.613Z,14.20
2022-09-24T21:32:30.292Z,14.20
2022-09-24T21:35:03.116Z,14.20
2022-09-24T21:37:35.865Z,14.10
2022-09-24T21:40:10.409Z,14.10
2022-09-24T21:42:43.316Z,14.10
2022-09-24T21:45:16.046Z,14.10
2022-09-24T21:47:48.857Z,14.10
2022-09-24T21:50:21.656Z,14.10
2022-09-24T21:52:54.285Z,14.10
2022-09-24T21:55:27.010Z,14.10
2022-09-24T21:57:59.813Z,14.10
2022-09-24T22:00:32.939Z,14.10
2022-09-24T22:03:05.684Z,14.10
2022-09-24T22:05:43.701Z,14.10
2022-09-24T22:08:16.500Z,14.10
2022-09-24T22:10:49.749Z,14.10
2022-09-24T22:13:23.033Z,14.00
2022-09-24T22:15:57.576Z,14.10
2022-09-24T22:18:30.348Z,14.00
2022-09-24T22:21:08.832Z,14.00
2022-09-24T22:23:41.611Z,14.00
2022-09-24T22:26:14.750Z,14.00
2022-09-24T22:28:47.657Z,14.00
2022-09-24T22:31:20.744Z,14.00
2022-09-24T22:34:12.442Z,14.00
2022-09-24T22:36:45.267Z,14.00
2022-09-24T22:39:17.952Z,14.00
2022-09-24T22:41:52.439Z,14.00
2022-09-24T22:44:25.134Z,14.00
2022-09-24T22:46:57.855Z,14.00
2022-09-24T22:49:32.504Z,13.90
2022-09-24T22:52:05.187Z,14.00
2022-09-24T22:54:37.970Z,13.90
2022-09-24T22:57:10.633Z,13.90
2022-09-24T22:59:43.262Z,13.90
2022-09-24T23:02:15.909Z,13.90
2022-09-24T23:04:48.576Z,13.90
2022-09-24T23:07:22.507Z,13.90
2022-09-24T23:09:55.146Z,13.90
2022-09-24T23:12:34.283Z,13.90
2022-09-24T23:15:07.700Z,13.90
2022-09-24T23:17:40.577Z,13.80
2022-09-24T23:20:14.351Z,13.80
2022-09-24T23:22:47.324Z,13.80
2022-09-24T23:25:20.015Z,13.80
2022-09-24T23:27:52.699Z,13.80
2022-09-24T23:30:26.107Z,13.80
2022-09-24T23:32:58.988Z,13.80
2022-09-24T23:35:31.686Z,13.80
2022-09-24T23:38:04.526Z,13.80
2022-09-24T23:40:37.234Z,13.80
2022-09-24T23:43:10.148Z,13.80
2022-09-24T23:45:42.901Z,13.80
2022-09-24T23:48:16.233Z,13.80
2022-09-24T23:50:49.566Z,13.70
2022-09-24T23:53:22.316Z,13.70
2022-09-24T23:55:55.317Z,13.70
2022-09-24T23:58:28.098Z,13.70
